createdAt,value
2019-02-21T00:00:29.848Z,14.80
2019-02-21T00:03:00.346Z,17.90
2019-02-21T00:05:30.801Z,20.60
2019-02-21T00:08:01.296Z,18.33
2019-02-21T00:10:31.811Z,19.83
2019-02-21T00:13:03.836Z,21.37
2019-02-21T00:15:34.403Z,23.70
2019-02-21T00:18:04.955Z,18.43
2019-02-21T00:20:35.412Z,16.50
2019-02-21T00:23:05.997Z,18.10
2019-02-21T00:25:38.033Z,18.70
2019-02-21T00:28:09.261Z,19.23
2019-02-21T00:30:39.747Z,18.50
2019-02-21T00:33:10.235Z,18.80
2019-02-21T00:35:41.738Z,16.97
2019-02-21T00:38:12.297Z,23.40
2019-02-21T00:40:42.781Z,17.97
2019-02-21T00:43:13.257Z,16.20
2019-02-21T00:45:45.415Z,18.00
2019-02-21T00:48:15.943Z,20.07
2019-02-21T00:50:46.411Z,21.27
2019-02-21T00:53:16.904Z,20.70
2019-02-21T00:55:48.529Z,14.43
2019-02-21T00:58:19.036Z,15.50
2019-02-21T01:00:49.519Z,10.77
2019-02-21T01:03:20.006Z,12.57
2019-02-21T01:05:50.567Z,12.67
2019-02-21T01:08:21.099Z,11.57
2019-02-21T01:10:51.651Z,15.30
2019-02-21T01:13:22.158Z,15.93
2019-02-21T01:15:52.611Z,13.50
2019-02-21T01:18:23.095Z,15.43
2019-02-21T01:20:53.578Z,15.03
2019-02-21T01:23:24.096Z,13.10
2019-02-21T01:25:54.555Z,12.97
2019-02-21T01:28:25.040Z,12.83
2019-02-21T01:30:57.195Z,14.77
2019-02-21T01:33:27.856Z,16.07
2019-02-21T01:35:58.394Z,15.63
2019-02-21T01:38:28.895Z,13.03
2019-02-21T01:40:59.351Z,13.37
2019-02-21T01:43:29.836Z,15.23
2019-02-21T01:46:00.338Z,18.70
2019-02-21T01:48:32.240Z,12.20
2019-02-21T01:51:04.367Z,11.90
2019-02-21T01:53:34.851Z,12.10
2019-02-21T01:56:05.329Z,12.97
2019-02-21T01:58:37.459Z,12.60
2019-02-21T02:01:09.043Z,16.23
2019-02-21T02:03:39.832Z,13.73
2019-02-21T02:06:10.352Z,14.77
2019-02-21T02:08:40.816Z,17.33
2019-02-21T02:11:11.326Z,16.87
2019-02-21T02:13:41.787Z,13.30
2019-02-21T02:16:12.261Z,15.63
2019-02-21T02:18:42.712Z,9.90
2019-02-21T02:21:13.934Z,13.57
2019-02-21T02:23:44.430Z,15.30
2019-02-21T02:26:14.893Z,15.03
2019-02-21T02:29:06.241Z,17.17
2019-02-21T02:31:36.786Z,10.47
2019-02-21T02:34:08.448Z,15.10
2019-02-21T02:36:38.982Z,14.70
2019-02-21T02:39:09.547Z,16.80
2019-02-21T02:41:40.008Z,11.50
2019-02-21T02:44:10.527Z,13.70
2019-02-21T02:46:40.984Z,12.47
2019-02-21T02:49:11.510Z,16.30
2019-02-21T02:51:42.038Z,13.80
2019-02-21T02:54:12.546Z,17.17
2019-02-21T02:56:43.046Z,16.27
2019-02-21T02:59:13.502Z,13.73
2019-02-21T03:01:43.993Z,16.07
2019-02-21T03:04:14.543Z,12.43
2019-02-21T03:06:45.581Z,15.60
2019-02-21T03:09:16.043Z,14.83
2019-02-21T03:11:46.627Z,13.50
2019-02-21T03:14:17.074Z,14.57
2019-02-21T03:16:47.565Z,14.67
2019-02-21T03:19:18.020Z,13.77
2019-02-21T03:21:48.594Z,15.20
2019-02-21T03:24:19.071Z,12.00
2019-02-21T03:26:49.567Z,14.47
2019-02-21T03:29:20.053Z,14.77
2019-02-21T03:31:55.301Z,13.07
2019-02-21T03:34:24.607Z,14.50
2019-02-21T03:36:55.872Z,13.13
2019-02-21T03:39:27.723Z,13.83
2019-02-21T03:42:00.199Z,12.97
2019-02-21T03:44:32.166Z,16.37
2019-02-21T03:47:02.660Z,13.10
2019-02-21T03:49:33.121Z,12.40
2019-02-21T03:52:05.110Z,14.47
2019-02-21T03:54:36.320Z,12.00
2019-02-21T03:57:08.278Z,11.57
2019-02-21T03:59:38.831Z,13.70
2019-02-21T04:02:09.384Z,14.07
2019-02-21T04:04:39.901Z,16.63
2019-02-21T04:07:10.527Z,14.07
2019-02-21T04:09:41.021Z,13.23
2019-02-21T04:12:11.479Z,15.37
2019-02-21T04:14:42.041Z,18.67
2019-02-21T04:17:12.504Z,22.00
2019-02-21T04:19:43.003Z,17.70
2019-02-21T04:22:15.020Z,15.57
2019-02-21T04:24:45.478Z,21.30
2019-02-21T04:27:15.980Z,18.10
2019-02-21T04:29:46.449Z,18.30
2019-02-21T04:32:17.315Z,18.27
2019-02-21T04:34:47.889Z,21.43
2019-02-21T04:37:20.750Z,20.17
2019-02-21T04:39:51.230Z,22.00
2019-02-21T04:42:22.973Z,19.93
2019-02-21T04:44:54.353Z,21.87
2019-02-21T04:47:24.818Z,21.20
2019-02-21T04:49:55.302Z,24.13
2019-02-21T04:52:25.773Z,24.13
2019-02-21T04:54:56.271Z,23.30
2019-02-21T04:57:26.753Z,23.20
2019-02-21T04:59:58.796Z,26.27
2019-02-21T05:02:29.804Z,24.30
2019-02-21T05:05:00.438Z,27.03
2019-02-21T05:07:35.745Z,23.37
2019-02-21T05:10:07.810Z,25.10
2019-02-21T05:12:40.043Z,24.27
2019-02-21T05:15:14.032Z,25.50
2019-02-21T05:17:46.262Z,27.17
2019-02-21T05:20:16.721Z,22.13
2019-02-21T05:22:47.202Z,26.67
2019-02-21T05:25:19.197Z,24.90
2019-02-21T05:27:51.288Z,23.63
2019-02-21T05:30:23.426Z,25.83
2019-02-21T05:32:56.017Z,25.70
2019-02-21T05:35:31.077Z,24.70
2019-02-21T05:38:11.107Z,20.50
2019-02-21T05:40:59.536Z,33.63
2019-02-21T05:43:37.109Z,42.07
2019-02-21T05:46:10.058Z,24.57
2019-02-21T05:48:44.843Z,23.30
2019-02-21T05:51:16.987Z,27.37
2019-02-21T05:53:51.855Z,18.83
2019-02-21T05:56:22.619Z,17.70
2019-02-21T05:59:05.399Z,23.10
2019-02-21T06:01:56.317Z,32.80
2019-02-21T06:04:34.519Z,47.53
2019-02-21T06:07:22.441Z,39.90
2019-02-21T06:09:54.562Z,36.57
2019-02-21T06:12:33.573Z,42.23
2019-02-21T06:15:04.309Z,41.83
2019-02-21T06:17:45.438Z,32.70
2019-02-21T06:20:22.187Z,21.57
2019-02-21T06:22:57.406Z,23.17
2019-02-21T06:25:30.458Z,21.60
2019-02-21T06:28:05.507Z,17.67
2019-02-21T06:30:38.306Z,21.70
2019-02-21T06:33:08.872Z,19.90
2019-02-21T06:35:40.894Z,18.00
2019-02-21T06:38:11.356Z,19.40
2019-02-21T06:40:46.979Z,23.17
2019-02-21T06:43:16.899Z,19.33
2019-02-21T06:45:47.477Z,19.23
2019-02-21T06:48:17.939Z,16.50
2019-02-21T06:50:49.975Z,22.70
2019-02-21T06:53:20.434Z,24.80
2019-02-21T06:55:50.933Z,22.83
2019-02-21T06:58:21.392Z,17.67
2019-02-21T07:00:55.067Z,55.77
2019-02-21T07:03:25.585Z,207.60
2019-02-21T07:05:56.037Z,47.20
2019-02-21T07:08:26.524Z,23.10
2019-02-21T07:11:05.816Z,20.77
2019-02-21T07:13:30.246Z,22.60
2019-02-21T07:16:00.636Z,22.47
2019-02-21T07:18:31.139Z,24.63
2019-02-21T07:21:03.227Z,22.33
2019-02-21T07:23:43.144Z,23.63
2019-02-21T07:26:05.924Z,43.27
2019-02-21T07:28:36.384Z,68.43
2019-02-21T07:31:06.894Z,41.17
2019-02-21T07:33:37.357Z,26.17
2019-02-21T07:36:07.842Z,24.37
2019-02-21T07:38:38.355Z,24.57
2019-02-21T07:41:09.030Z,21.20
2019-02-21T07:43:39.679Z,19.90
2019-02-21T07:46:10.245Z,21.80
2019-02-21T07:48:41.846Z,19.63
2019-02-21T07:51:13.566Z,25.80
2019-02-21T07:53:44.190Z,29.63
2019-02-21T07:56:14.680Z,61.07
2019-02-21T07:58:45.174Z,74.20
2019-02-21T08:01:17.450Z,55.57
2019-02-21T08:03:48.663Z,26.53
2019-02-21T08:06:20.146Z,24.10
2019-02-21T08:08:50.819Z,28.07
2019-02-21T08:11:21.299Z,22.70
2019-02-21T08:13:51.781Z,26.37
2019-02-21T08:16:22.288Z,27.37
2019-02-21T08:18:52.779Z,23.67
2019-02-21T08:21:24.021Z,19.93
2019-02-21T08:23:54.499Z,22.03
2019-02-21T08:26:25.000Z,19.47
2019-02-21T08:28:55.529Z,18.70
2019-02-21T08:31:26.013Z,17.37
2019-02-21T08:33:58.979Z,18.37
2019-02-21T08:36:29.688Z,21.33
2019-02-21T08:39:00.148Z,20.03
2019-02-21T08:41:30.639Z,17.53
2019-02-21T08:44:01.104Z,20.17
2019-02-21T08:46:31.602Z,20.00
2019-02-21T08:49:02.083Z,22.10
2019-02-21T08:51:32.591Z,19.30
2019-02-21T08:54:05.538Z,20.77
2019-02-21T08:56:35.323Z,17.50
2019-02-21T08:59:05.818Z,19.80
2019-02-21T09:01:36.366Z,16.13
2019-02-21T09:04:10.519Z,24.43
2019-02-21T09:06:39.195Z,22.07
2019-02-21T09:09:10.229Z,15.00
2019-02-21T09:11:40.733Z,18.60
2019-02-21T09:14:11.237Z,22.00
2019-02-21T09:16:43.120Z,19.77
2019-02-21T09:19:15.268Z,17.97
2019-02-21T09:21:45.750Z,19.30
2019-02-21T09:24:35.242Z,16.50
2019-02-21T09:26:48.475Z,19.00
2019-02-21T09:29:18.954Z,19.57
2019-02-21T09:31:49.457Z,18.53
2019-02-21T09:34:21.429Z,22.93
2019-02-21T09:36:52.280Z,20.20
2019-02-21T09:39:22.738Z,17.43
2019-02-21T09:41:53.234Z,20.87
2019-02-21T09:44:27.255Z,20.67
2019-02-21T09:46:55.972Z,25.60
2019-02-21T09:49:26.439Z,19.53
2019-02-21T09:51:56.938Z,16.63
2019-02-21T09:54:27.487Z,18.77
2019-02-21T09:56:58.743Z,19.80
2019-02-21T09:59:29.236Z,21.30
2019-02-21T10:01:59.697Z,21.50
2019-02-21T10:04:32.393Z,19.33
2019-02-21T10:07:02.363Z,18.20
2019-02-21T10:09:32.862Z,17.90
2019-02-21T10:12:03.647Z,20.20
2019-02-21T10:14:34.115Z,18.40
2019-02-21T10:17:04.775Z,21.07
2019-02-21T10:19:35.742Z,18.93
2019-02-21T10:22:06.373Z,15.07
2019-02-21T10:24:36.882Z,17.50
2019-02-21T10:27:07.352Z,17.87
2019-02-21T10:29:37.851Z,13.70
2019-02-21T10:32:08.318Z,17.10
2019-02-21T10:34:43.077Z,18.37
2019-02-21T10:37:10.983Z,19.60
2019-02-21T10:39:41.473Z,20.53
2019-02-21T10:42:11.925Z,21.83
2019-02-21T10:44:42.413Z,20.50
2019-02-21T10:47:14.407Z,18.73
2019-02-21T10:49:44.899Z,19.60
2019-02-21T10:52:15.387Z,23.93
2019-02-21T10:54:45.890Z,22.10
2019-02-21T10:57:16.360Z,21.17
2019-02-21T10:59:47.181Z,24.43
2019-02-21T11:02:17.943Z,18.33
2019-02-21T11:04:54.774Z,24.20
2019-02-21T11:07:20.594Z,19.50
2019-02-21T11:09:51.092Z,24.30
2019-02-21T11:12:21.589Z,23.90
2019-02-21T11:14:52.046Z,23.30
2019-02-21T11:17:25.750Z,25.33
2019-02-21T11:19:55.795Z,22.00
2019-02-21T11:22:26.290Z,23.23
2019-02-21T11:24:56.782Z,24.17
2019-02-21T11:27:28.828Z,18.13
2019-02-21T11:30:01.968Z,20.57
2019-02-21T11:32:32.480Z,21.07
2019-02-21T11:35:06.114Z,20.63
2019-02-21T11:37:42.623Z,23.17
2019-02-21T11:40:11.129Z,21.23
2019-02-21T11:42:41.619Z,20.13
2019-02-21T11:45:15.327Z,16.33
2019-02-21T11:47:45.834Z,18.00
2019-02-21T11:50:18.425Z,18.70
2019-02-21T11:52:48.930Z,15.73
2019-02-21T11:55:47.867Z,17.90
2019-02-21T11:58:18.451Z,16.90
2019-02-21T12:00:48.930Z,20.83
2019-02-21T12:03:21.306Z,17.80
2019-02-21T12:05:51.609Z,17.27
2019-02-21T12:08:22.133Z,16.23
2019-02-21T12:10:52.619Z,14.17
2019-02-21T12:13:23.130Z,9.83
2019-02-21T12:15:53.591Z,10.07
2019-02-21T12:18:24.121Z,10.50
2019-02-21T12:20:54.592Z,8.63
2019-02-21T12:23:25.543Z,10.83
2019-02-21T12:25:56.021Z,11.97
2019-02-21T12:28:26.542Z,17.77
2019-02-21T12:30:57.006Z,15.87
2019-02-21T12:33:27.528Z,8.60
2019-02-21T12:35:59.531Z,8.73
2019-02-21T12:38:30.430Z,8.80
2019-02-21T12:41:02.365Z,6.77
2019-02-21T12:43:32.984Z,8.00
2019-02-21T12:46:03.460Z,8.67
2019-02-21T12:48:33.962Z,10.83
2019-02-21T12:51:05.976Z,8.60
2019-02-21T12:53:36.465Z,9.40
2019-02-21T12:56:07.031Z,9.30
2019-02-21T12:58:37.510Z,10.57
2019-02-21T13:01:08.084Z,11.00
2019-02-21T13:03:38.556Z,10.60
2019-02-21T13:06:09.059Z,13.43
2019-02-21T13:08:41.611Z,10.97
2019-02-21T13:11:12.224Z,9.30
2019-02-21T13:13:42.732Z,9.93
2019-02-21T13:16:13.234Z,10.43
2019-02-21T13:18:43.731Z,10.43
2019-02-21T13:21:14.217Z,9.90
2019-02-21T13:23:44.756Z,9.27
2019-02-21T13:26:15.262Z,13.27
2019-02-21T13:28:45.754Z,11.73
2019-02-21T13:31:16.256Z,10.50
2019-02-21T13:33:46.742Z,11.77
2019-02-21T13:36:17.218Z,15.13
2019-02-21T13:38:47.735Z,13.50
2019-02-21T13:41:18.238Z,13.53
2019-02-21T13:43:48.717Z,10.63
2019-02-21T13:46:19.210Z,10.60
2019-02-21T13:48:51.248Z,14.13
2019-02-21T13:51:23.259Z,11.70
2019-02-21T13:53:54.651Z,9.83
2019-02-21T13:56:25.107Z,8.67
2019-02-21T13:58:55.894Z,12.33
2019-02-21T14:01:26.366Z,10.43
2019-02-21T14:03:56.887Z,8.90
2019-02-21T14:06:27.369Z,14.50
2019-02-21T14:08:57.880Z,10.50
2019-02-21T14:11:30.725Z,19.33
2019-02-21T14:14:00.563Z,14.00
2019-02-21T14:16:31.827Z,9.63
2019-02-21T14:19:02.338Z,12.10
2019-02-21T14:21:32.819Z,9.87
2019-02-21T14:24:03.304Z,15.27
2019-02-21T14:26:33.799Z,10.20
2019-02-21T14:29:05.854Z,15.60
2019-02-21T14:31:36.365Z,10.37
2019-02-21T14:34:06.845Z,11.10
2019-02-21T14:36:37.362Z,10.83
2019-02-21T14:39:10.613Z,12.80
2019-02-21T14:41:43.877Z,13.10
2019-02-21T14:44:13.760Z,17.50
2019-02-21T14:46:44.227Z,11.90
2019-02-21T14:49:14.767Z,13.50
2019-02-21T14:51:45.235Z,11.60
2019-02-21T14:54:17.279Z,14.03
2019-02-21T14:56:47.804Z,13.80
2019-02-21T14:59:19.989Z,10.90
2019-02-21T15:01:50.573Z,16.17
2019-02-21T15:04:21.043Z,12.83
2019-02-21T15:06:51.640Z,15.07
2019-02-21T15:09:22.138Z,14.17
2019-02-21T15:11:52.700Z,13.90
2019-02-21T15:14:23.279Z,13.33
2019-02-21T15:16:55.420Z,12.30
2019-02-21T15:19:26.698Z,13.93
2019-02-21T15:21:57.177Z,13.77
2019-02-21T15:24:29.745Z,13.40
2019-02-21T15:27:08.083Z,14.43
2019-02-21T15:29:32.415Z,14.77
2019-02-21T15:32:10.626Z,14.93
2019-02-21T15:34:35.153Z,14.87
2019-02-21T15:37:05.661Z,16.27
2019-02-21T15:39:36.132Z,15.10
2019-02-21T15:42:06.704Z,12.57
2019-02-21T15:44:37.175Z,14.57
2019-02-21T15:47:07.728Z,15.00
2019-02-21T15:49:38.225Z,15.40
2019-02-21T15:52:08.720Z,14.47
2019-02-21T15:54:39.193Z,17.13
2019-02-21T15:57:09.754Z,19.00
2019-02-21T15:59:40.218Z,14.63
2019-02-21T16:02:10.744Z,12.60
2019-02-21T16:04:41.274Z,14.57
2019-02-21T16:07:11.773Z,19.40
2019-02-21T16:09:42.227Z,19.03
2019-02-21T16:12:13.217Z,19.30
2019-02-21T16:14:43.801Z,18.13
2019-02-21T16:17:14.367Z,13.10
2019-02-21T16:19:44.879Z,13.70
2019-02-21T16:22:15.363Z,16.97
2019-02-21T16:24:48.030Z,21.30
2019-02-21T16:27:18.047Z,15.57
2019-02-21T16:29:48.508Z,16.23
2019-02-21T16:32:19.075Z,40.67
2019-02-21T16:34:49.571Z,22.13
2019-02-21T16:37:20.046Z,39.73
2019-02-21T16:39:50.571Z,27.03
2019-02-21T16:42:21.033Z,31.57
2019-02-21T16:44:51.576Z,25.70
2019-02-21T16:47:23.672Z,17.87
2019-02-21T16:49:55.134Z,18.90
2019-02-21T16:52:25.595Z,13.10
2019-02-21T16:54:56.100Z,19.37
2019-02-21T16:57:26.583Z,16.37
2019-02-21T16:59:57.060Z,20.90
2019-02-21T17:02:27.561Z,19.07
2019-02-21T17:04:58.042Z,21.57
2019-02-21T17:07:28.543Z,18.97
2019-02-21T17:09:59.045Z,16.60
2019-02-21T17:12:29.521Z,22.27
2019-02-21T17:15:00.366Z,15.93
2019-02-21T17:17:30.936Z,16.33
2019-02-21T17:20:03.122Z,20.93
2019-02-21T17:22:35.356Z,18.63
2019-02-21T17:25:09.549Z,32.73
2019-02-21T17:27:40.021Z,25.47
2019-02-21T17:30:14.618Z,19.03
2019-02-21T17:32:46.771Z,23.63
2019-02-21T17:35:17.344Z,19.00
2019-02-21T17:37:47.878Z,22.97
2019-02-21T17:40:24.315Z,22.33
2019-02-21T17:42:54.783Z,18.70
2019-02-21T17:45:25.365Z,23.13
2019-02-21T17:47:55.876Z,21.40
2019-02-21T17:50:26.344Z,20.10
2019-02-21T17:52:56.846Z,21.60
2019-02-21T17:55:27.330Z,19.73
2019-02-21T17:57:57.856Z,22.77
2019-02-21T18:00:32.640Z,20.33
2019-02-21T18:03:03.919Z,19.80
2019-02-21T18:05:34.396Z,21.20
2019-02-21T18:08:06.115Z,18.70
2019-02-21T18:10:36.667Z,27.63
2019-02-21T18:13:07.277Z,25.40
2019-02-21T18:15:37.783Z,19.33
2019-02-21T18:18:08.724Z,25.10
2019-02-21T18:20:40.770Z,23.17
2019-02-21T18:23:12.521Z,21.73
2019-02-21T18:25:47.983Z,23.30
2019-02-21T18:28:19.989Z,26.93
2019-02-21T18:30:50.532Z,21.13
2019-02-21T18:33:22.389Z,23.17
2019-02-21T18:35:52.860Z,23.97
2019-02-21T18:38:24.122Z,32.40
2019-02-21T18:40:54.698Z,21.00
2019-02-21T18:43:25.242Z,22.67
2019-02-21T18:45:57.647Z,21.77
2019-02-21T18:48:28.008Z,25.10
2019-02-21T18:50:58.490Z,38.77
2019-02-21T18:53:28.983Z,24.93
2019-02-21T18:56:01.186Z,26.47
2019-02-21T18:58:32.221Z,25.57
2019-02-21T19:01:02.831Z,34.27
2019-02-21T19:03:33.300Z,33.27
2019-02-21T19:06:04.975Z,32.67
2019-02-21T19:08:35.419Z,31.93
2019-02-21T19:11:06.018Z,33.43
2019-02-21T19:13:36.489Z,32.97
2019-02-21T19:16:08.727Z,32.90
2019-02-21T19:18:41.120Z,32.80
2019-02-21T19:21:13.184Z,29.33
2019-02-21T19:23:43.683Z,24.70
2019-02-21T19:26:14.286Z,47.83
2019-02-21T19:28:44.776Z,37.53
2019-02-21T19:31:15.421Z,34.07
2019-02-21T19:33:46.486Z,33.77
2019-02-21T19:36:17.004Z,35.07
2019-02-21T19:38:47.534Z,34.70
2019-02-21T19:41:18.448Z,31.00
2019-02-21T19:43:48.924Z,31.50
2019-02-21T19:46:19.495Z,36.77
2019-02-21T19:48:49.982Z,35.10
2019-02-21T19:51:20.558Z,36.53
2019-02-21T19:53:51.023Z,32.03
2019-02-21T19:56:21.523Z,36.37
2019-02-21T19:58:53.637Z,36.50
2019-02-21T20:01:24.212Z,36.30
2019-02-21T20:03:54.791Z,42.40
2019-02-21T20:06:25.354Z,37.83
2019-02-21T20:08:55.897Z,37.17
2019-02-21T20:11:26.697Z,34.27
2019-02-21T20:13:57.227Z,33.50
2019-02-21T20:16:27.782Z,30.70
2019-02-21T20:18:58.316Z,38.10
2019-02-21T20:21:28.890Z,33.60
2019-02-21T20:23:59.356Z,30.37
2019-02-21T20:26:29.852Z,39.90
2019-02-21T20:29:00.365Z,38.10
2019-02-21T20:31:30.837Z,48.53
2019-02-21T20:34:01.345Z,45.60
2019-02-21T20:36:31.888Z,48.73
2019-02-21T20:39:02.420Z,41.30
2019-02-21T20:41:32.892Z,38.27
2019-02-21T20:44:03.533Z,40.47
2019-02-21T20:46:34.064Z,40.20
2019-02-21T20:49:04.566Z,23.97
2019-02-21T20:51:35.065Z,20.43
2019-02-21T20:54:05.694Z,16.83
2019-02-21T20:56:36.193Z,2.80
2019-02-21T20:59:06.722Z,3.07
2019-02-21T21:01:37.218Z,4.20
2019-02-21T21:04:07.697Z,2.77
2019-02-21T21:06:38.747Z,2.43
2019-02-21T21:09:09.387Z,2.40
2019-02-21T21:11:39.928Z,3.17
2019-02-21T21:14:10.451Z,2.40
2019-02-21T21:16:40.921Z,2.50
2019-02-21T21:19:11.493Z,2.07
2019-02-21T21:21:41.948Z,2.37
2019-02-21T21:24:13.660Z,2.33
2019-02-21T21:26:44.878Z,2.47
2019-02-21T21:29:16.544Z,8.30
2019-02-21T21:31:46.963Z,6.90
2019-02-21T21:34:17.535Z,3.33
2019-02-21T21:36:48.054Z,2.87
2019-02-21T21:39:18.663Z,2.70
2019-02-21T21:41:49.162Z,4.33
2019-02-21T21:44:19.624Z,2.90
2019-02-21T21:46:50.109Z,3.67
2019-02-21T21:49:20.725Z,3.67
2019-02-21T21:51:51.207Z,3.90
2019-02-21T21:54:21.687Z,4.77
2019-02-21T21:56:52.184Z,4.17
2019-02-21T21:59:23.334Z,3.30
2019-02-21T22:01:53.845Z,3.60
2019-02-21T22:04:24.376Z,4.07
2019-02-21T22:06:54.862Z,4.50
2019-02-21T22:09:25.327Z,8.00
2019-02-21T22:11:55.810Z,7.90
2019-02-21T22:14:26.305Z,5.10
2019-02-21T22:16:56.787Z,7.20
2019-02-21T22:19:27.287Z,8.23
2019-02-21T22:21:57.874Z,7.60
2019-02-21T22:24:28.354Z,7.50
2019-02-21T22:26:59.391Z,7.73
2019-02-21T22:29:29.849Z,7.83
2019-02-21T22:32:00.335Z,8.43
2019-02-21T22:34:31.263Z,7.87
2019-02-21T22:37:01.770Z,10.83
2019-02-21T22:39:32.224Z,9.67
2019-02-21T22:42:02.725Z,9.43
2019-02-21T22:44:33.178Z,6.70
2019-02-21T22:47:03.679Z,7.10
2019-02-21T22:49:35.399Z,8.13
2019-02-21T22:52:05.960Z,9.47
2019-02-21T22:54:37.010Z,9.60
2019-02-21T22:57:07.655Z,8.40
2019-02-21T22:59:40.957Z,8.50
2019-02-21T23:02:11.643Z,8.47
2019-02-21T23:04:46.834Z,10.80
2019-02-21T23:07:22.119Z,9.13
2019-02-21T23:09:52.711Z,11.53
2019-02-21T23:12:23.337Z,10.03
2019-02-21T23:14:53.796Z,11.80
2019-02-21T23:17:25.552Z,11.70
2019-02-21T23:19:56.102Z,9.80
2019-02-21T23:22:26.647Z,9.93
2019-02-21T23:24:57.140Z,13.57
2019-02-21T23:27:27.600Z,10.20
2019-02-21T23:29:58.179Z,15.10
2019-02-21T23:32:30.345Z,11.03
2019-02-21T23:35:00.818Z,11.60
2019-02-21T23:37:31.351Z,14.37
2019-02-21T23:40:01.829Z,10.13
2019-02-21T23:42:32.381Z,12.20
2019-02-21T23:45:02.958Z,14.40
2019-02-21T23:47:33.416Z,16.03
2019-02-21T23:50:04.826Z,13.23
2019-02-21T23:52:35.313Z,13.33
2019-02-21T23:55:06.734Z,14.17
2019-02-21T23:57:40.120Z,17.07
